createdAt,value
2018-11-04T11:24:43.545Z,21.27
2018-11-04T11:27:12.029Z,21.37
2018-11-04T11:29:40.480Z,22.20
2018-11-04T11:32:09.346Z,22.10
2018-11-04T11:34:38.144Z,22.47
2018-11-04T11:37:06.885Z,22.93
2018-11-04T11:39:36.195Z,23.17
2018-11-04T11:42:04.713Z,22.20
2018-11-04T11:44:33.714Z,21.97
2018-11-04T11:47:02.913Z,21.43
2018-11-04T11:49:31.497Z,23.20
2018-11-04T11:51:59.988Z,20.70
2018-11-04T11:54:28.547Z,21.00
2018-11-04T11:56:58.224Z,20.87
2018-11-04T11:59:26.944Z,20.87
2018-11-04T12:01:56.016Z,21.40
2018-11-04T12:04:24.723Z,21.07
2018-11-04T12:06:53.363Z,20.57
2018-11-04T12:09:22.018Z,21.03
2018-11-04T12:11:50.530Z,19.43
2018-11-04T12:14:19.119Z,19.03
2018-11-04T12:16:47.669Z,20.97
2018-11-04T12:19:16.125Z,19.23
2018-11-04T12:21:45.298Z,18.90
2018-11-04T12:24:14.186Z,19.47
2018-11-04T12:26:42.838Z,18.67
2018-11-04T12:29:11.456Z,18.83
2018-11-04T12:31:40.191Z,18.37
2018-11-04T12:34:08.910Z,18.17
2018-11-04T12:36:38.093Z,18.07
2018-11-04T12:39:31.287Z,18.43
2018-11-04T12:41:59.704Z,17.77
2018-11-04T12:44:29.059Z,18.10
2018-11-04T12:47:00.449Z,17.37
2018-11-04T12:49:31.722Z,17.53
2018-11-04T12:52:05.077Z,17.23
2018-11-04T13:01:15.764Z,16.00
2018-11-04T13:03:45.484Z,15.70
2018-11-04T13:06:14.115Z,15.77
2018-11-04T13:08:43.065Z,15.23
2018-11-04T13:11:11.838Z,16.07
2018-11-04T13:13:40.262Z,16.10
2018-11-04T13:16:08.918Z,15.30
2018-11-04T13:18:37.779Z,14.67
2018-11-04T13:21:06.803Z,15.33
2018-11-04T13:23:35.786Z,15.07
2018-11-04T13:26:04.209Z,14.13
2018-11-04T13:28:32.963Z,14.90
2018-11-04T13:31:01.606Z,14.77
2018-11-04T13:33:30.178Z,14.30
2018-11-04T13:35:58.747Z,13.27
2018-11-04T13:38:28.014Z,14.53
2018-11-04T13:40:56.480Z,13.70
2018-11-04T14:13:35.587Z,13.63
2018-11-04T14:16:04.840Z,14.20
2018-11-04T14:18:33.530Z,15.10
2018-11-04T14:21:02.417Z,14.00
2018-11-04T14:23:31.152Z,14.77
2018-11-04T14:25:59.694Z,14.37
2018-11-04T14:28:28.863Z,14.83
2018-11-04T14:30:57.562Z,14.67
2018-11-04T14:33:26.834Z,15.23
2018-11-04T14:35:55.528Z,15.07
2018-11-04T14:41:00.215Z,15.53
2018-11-04T14:50:37.014Z,15.80
2018-11-04T14:53:06.456Z,14.07
2018-11-04T14:55:34.854Z,16.07
2018-11-04T14:58:03.501Z,16.30
2018-11-04T15:00:35.041Z,15.73
2018-11-04T15:03:04.142Z,16.10
2018-11-04T15:05:32.692Z,16.03
2018-11-04T15:08:03.361Z,16.27
2018-11-04T15:10:31.956Z,17.43
2018-11-04T15:13:00.584Z,17.17
2018-11-04T15:15:29.441Z,16.93
2018-11-04T15:17:58.184Z,17.67
2018-11-04T15:20:26.693Z,18.37
2018-11-04T15:22:55.902Z,18.90
2018-11-04T15:25:24.457Z,19.13
2018-11-04T15:27:52.900Z,19.37
2018-11-04T15:30:21.323Z,19.40
2018-11-04T15:32:49.841Z,20.43
2018-11-04T15:35:18.537Z,19.97
2018-11-04T15:37:47.217Z,21.17
2018-11-04T15:40:16.536Z,21.87
2018-11-04T15:42:44.992Z,21.37
2018-11-04T15:45:14.572Z,22.17
2018-11-04T15:47:43.111Z,22.20
2018-11-04T15:50:13.411Z,22.37
2018-11-04T15:52:42.356Z,23.27
2018-11-04T15:55:10.996Z,23.20
2018-11-04T15:57:39.543Z,22.50
2018-11-04T16:00:10.193Z,24.00
2018-11-04T16:02:39.061Z,24.37
2018-11-04T16:05:08.392Z,23.43
2018-11-04T16:07:36.952Z,23.60
2018-11-04T16:10:07.149Z,24.13
2018-11-04T16:12:35.838Z,22.93
2018-11-04T16:15:04.681Z,22.97
2018-11-04T16:17:33.176Z,22.67
2018-11-04T16:20:28.784Z,21.80
2018-11-04T16:22:57.909Z,20.67
2018-11-04T16:25:28.509Z,19.73
2018-11-04T16:28:10.713Z,19.37
2018-11-04T16:30:53.442Z,18.90
2018-11-04T16:33:22.083Z,18.93
2018-11-04T16:35:50.521Z,18.73
2018-11-04T16:38:19.130Z,18.33
2018-11-04T16:40:47.989Z,18.77
2018-11-04T16:43:22.973Z,17.10
2018-11-04T16:50:11.020Z,16.97
2018-11-04T16:52:40.573Z,16.80
2018-11-04T16:55:10.447Z,17.70
2018-11-04T16:57:41.872Z,16.27
2018-11-04T17:00:19.661Z,18.83
2018-11-04T17:02:48.380Z,17.97
2018-11-04T17:05:17.458Z,19.27
2018-11-04T17:07:47.902Z,18.50
2018-11-04T17:10:16.727Z,18.23
2018-11-04T17:12:46.499Z,17.50
2018-11-04T17:15:15.878Z,18.03
2018-11-04T17:17:55.838Z,18.30
2018-11-04T17:20:24.529Z,17.43
2018-11-04T17:23:00.527Z,17.63
2018-11-04T17:25:29.585Z,19.27
2018-11-04T17:27:58.232Z,19.10
2018-11-04T17:30:30.402Z,19.57
2018-11-04T17:33:00.704Z,18.17
2018-11-04T17:35:30.317Z,18.67
2018-11-04T17:37:59.820Z,18.77
2018-11-04T17:40:28.812Z,18.90
2018-11-04T17:42:58.302Z,18.57
2018-11-04T17:45:28.645Z,18.50
2018-11-04T17:47:57.496Z,19.33
2018-11-04T17:50:26.154Z,20.10
2018-11-04T17:52:55.921Z,19.33
2018-11-04T17:55:24.707Z,18.93
2018-11-04T17:57:53.342Z,18.50
2018-11-04T18:00:21.962Z,19.17
2018-11-04T18:02:54.379Z,19.77
2018-11-04T18:05:23.792Z,18.13
2018-11-04T18:07:53.301Z,19.43
2018-11-04T18:10:22.169Z,19.60
2018-11-04T18:12:50.673Z,19.17
2018-11-04T18:15:20.175Z,20.07
2018-11-04T18:17:48.716Z,20.13
2018-11-04T18:20:17.342Z,20.23
2018-11-04T18:22:45.928Z,19.37
2018-11-04T18:25:14.469Z,18.57
2018-11-04T18:27:43.819Z,17.67
2018-11-04T18:30:15.154Z,17.53
2018-11-04T18:32:44.943Z,16.60
2018-11-04T18:35:13.941Z,16.17
2018-11-04T18:37:42.546Z,15.03
2018-11-04T18:40:13.666Z,16.17
2018-11-04T18:42:46.744Z,16.20
2018-11-04T18:45:16.414Z,17.10
2018-11-04T18:47:45.069Z,18.63
2018-11-04T18:50:14.624Z,19.73
2018-11-04T18:52:43.624Z,20.00
2018-11-04T18:55:12.743Z,23.07
2018-11-04T18:57:47.898Z,26.87
2018-11-04T19:00:17.830Z,29.27
2018-11-04T19:02:47.289Z,32.40
2018-11-04T19:05:16.686Z,32.77
2018-11-04T19:07:46.769Z,35.83
2018-11-04T19:10:21.966Z,36.63
2018-11-04T19:12:53.623Z,38.20
2018-11-04T19:15:22.175Z,31.43
2018-11-04T19:17:52.815Z,29.33
2018-11-04T19:20:40.372Z,30.23
2018-11-04T19:23:18.741Z,29.73
2018-11-04T19:25:52.713Z,29.73
2018-11-04T19:28:21.469Z,28.57
2018-11-04T19:30:50.242Z,28.17
2018-11-04T19:33:18.672Z,25.53
2018-11-04T19:35:47.145Z,24.93
2018-11-04T19:38:16.327Z,22.87
2018-11-04T19:40:44.892Z,22.97
2018-11-04T19:43:13.451Z,22.20
2018-11-04T19:45:41.997Z,19.33
2018-11-04T19:48:10.823Z,18.83
2018-11-04T19:50:39.367Z,18.47
2018-11-04T19:53:07.948Z,17.47
2018-11-04T19:55:36.517Z,16.70
2018-11-04T19:58:05.201Z,16.87
2018-11-04T20:00:33.744Z,16.87
2018-11-04T20:03:03.523Z,16.33
2018-11-04T20:05:32.952Z,17.57
2018-11-04T20:08:01.641Z,17.17
2018-11-04T20:10:30.316Z,16.37
2018-11-04T20:13:04.317Z,17.20
2018-11-04T20:15:32.891Z,16.30
2018-11-04T20:18:05.861Z,16.17
2018-11-04T20:20:34.343Z,16.80
2018-11-04T20:23:03.699Z,17.37
2018-11-04T20:25:40.065Z,17.33
2018-11-04T20:28:09.618Z,17.20
2018-11-04T20:30:38.366Z,17.50
2018-11-04T20:33:14.215Z,17.70
2018-11-04T20:35:43.276Z,16.63
2018-11-04T20:38:12.558Z,16.53
2018-11-04T20:40:47.918Z,15.57
2018-11-04T20:43:17.945Z,14.13
2018-11-04T20:45:47.555Z,14.77
2018-11-04T20:48:23.705Z,14.10
2018-11-04T20:51:03.156Z,15.90
2018-11-04T20:53:43.387Z,14.87
2018-11-04T20:56:21.423Z,15.77
2018-11-04T20:58:52.641Z,16.37
2018-11-04T21:01:21.498Z,17.27
2018-11-04T21:03:50.862Z,32.50
2018-11-04T21:06:20.188Z,51.53
2018-11-04T21:08:48.876Z,48.37
2018-11-04T21:11:20.834Z,46.37
2018-11-04T21:13:49.913Z,41.17
2018-11-04T21:16:19.738Z,40.37
2018-11-04T21:18:49.362Z,36.33
2018-11-04T21:21:19.134Z,35.00
2018-11-04T21:23:49.868Z,34.17
2018-11-04T21:26:20.320Z,32.00
2018-11-04T21:28:53.625Z,31.63
2018-11-04T21:31:52.145Z,31.10
2018-11-04T21:34:22.326Z,30.10
2018-11-04T21:36:51.806Z,31.00
2018-11-04T21:39:20.747Z,30.57
2018-11-04T21:41:54.281Z,29.40
2018-11-04T21:44:23.979Z,29.77
2018-11-04T21:47:05.423Z,29.83
2018-11-04T22:09:43.842Z,29.17
2018-11-04T22:12:14.632Z,29.57
2018-11-04T22:14:44.944Z,29.10
2018-11-04T22:17:15.611Z,29.80
2018-11-04T22:19:46.195Z,29.87
2018-11-04T22:22:15.753Z,30.40
2018-11-04T22:24:44.909Z,29.30
2018-11-04T22:27:15.034Z,29.43
2018-11-04T22:29:44.573Z,28.30
2018-11-04T22:32:13.529Z,29.50
2018-11-04T22:34:42.851Z,28.30
2018-11-04T22:37:11.650Z,29.03
2018-11-04T22:39:40.598Z,29.17
2018-11-04T22:42:09.292Z,28.43
2018-11-04T22:44:37.953Z,27.40
2018-11-04T22:47:06.653Z,28.53
2018-11-04T22:49:35.450Z,28.30
2018-11-04T22:52:05.890Z,29.43
2018-11-04T22:54:35.264Z,28.13
2018-11-04T22:57:04.016Z,29.03
2018-11-04T22:59:32.727Z,28.23
2018-11-04T23:02:01.902Z,29.80
2018-11-04T23:04:36.152Z,28.63
2018-11-04T23:07:05.057Z,28.70
2018-11-04T23:09:33.955Z,29.10
2018-11-04T23:12:03.527Z,28.73
2018-11-04T23:14:32.330Z,28.57
2018-11-04T23:17:01.020Z,29.20
2018-11-04T23:19:30.277Z,29.33
2018-11-04T23:21:59.028Z,28.20
2018-11-04T23:24:27.970Z,27.37
2018-11-04T23:26:56.622Z,29.37
2018-11-04T23:29:25.145Z,27.73
2018-11-04T23:31:53.805Z,27.97
2018-11-04T23:34:23.273Z,27.23
2018-11-04T23:36:51.807Z,28.03
2018-11-04T23:39:20.833Z,27.97
2018-11-04T23:41:49.527Z,26.30
2018-11-04T23:44:18.304Z,25.87
2018-11-04T23:46:47.100Z,25.57
2018-11-04T23:49:16.789Z,24.63
2018-11-04T23:51:45.660Z,24.13
2018-11-04T23:54:14.497Z,24.80
2018-11-04T23:56:43.423Z,24.43
2018-11-04T23:59:11.863Z,23.63
